Eviapetrol I — SY5401 — position and weather

sailwx.info

Track history (hours):
 
Tides and Currents Weather Stations Pressure Air Temp Water Temp Dewpoint Dewpoint Depression Visibility Wind Speed Wind Dir Waves Ship Positions

Eviapetrol I

Last reported at 2014-Sep-20 11:33 UTC. Time now 2014-Sep-20 12:05 UTC.
Position N 38°02' E 023°36'.

Length 75 m; draft 4.5 m.

Type: Tanker. MMSI: 240285000.

Date/timePositionNaut miles runAvg speedWind from/ knotsBaromVisibWave heightAir tempDewpointWater temp
2014-Sep-20 11:33N 38°02' E 023°36'0 0.0
2014-Sep-20 10:33N 38°02' E 023°36'0 0.0
2014-Sep-20 09:33N 38°02' E 023°36'3 3.0
2014-Sep-20 08:33N 37°60' E 023°33'9 8.6
2014-Sep-20 07:33N 37°52' E 023°38'10 9.9
2014-Sep-20 06:33N 37°43' E 023°44'65 1.7
2014-Sep-18 17:16N 36°40' E 023°60'8 9.4
2014-Sep-18 16:23N 36°48' E 023°57'50 9.5
2014-Sep-18 11:05N 37°37' E 023°43'5 9.6
2014-Sep-18 10:33N 37°41' E 023°41'9 9.4
2014-Sep-18 09:33N 37°50' E 023°37'8 8.1
2014-Sep-18 08:33N 37°58' E 023°33'4 4.0
2014-Sep-18 07:33N 38°02' E 023°32'0 0.0
2014-Sep-18 06:30N 38°02' E 023°32'0 0.0
2014-Sep-18 05:33N 38°02' E 023°32'0 0.0
2014-Sep-18 04:33N 38°02' E 023°32'0 0.0
2014-Sep-18 03:33N 38°02' E 023°32'0 0.0
2014-Sep-18 02:18N 38°02' E 023°32'0 0.0
2014-Sep-18 01:33N 38°02' E 023°32'0 0.0
2014-Sep-18 00:33N 38°02' E 023°32'0 0.0
2014-Sep-17 23:33N 38°02' E 023°32'0 0.0
2014-Sep-17 22:33N 38°02' E 023°32'0 0.0
2014-Sep-17 21:30N 38°02' E 023°32'0 0.0
2014-Sep-17 20:33N 38°02' E 023°32'1 0.8
2014-Sep-17 19:33N 38°01' E 023°32'3 0.5
2014-Sep-17 14:24N 38°02' E 023°36'0 0.0
2014-Sep-17 12:32N 38°02' E 023°36'3 1.7
2014-Sep-17 10:33N 38°02' E 023°31'0 0.1
2014-Sep-17 09:33N 38°02' E 023°31'  
2014-Sep-14 14:06N 37°56' E 023°16'5 9.2
2014-Sep-14 13:33N 37°57' E 023°22'9 7.4
2014-Sep-14 12:18N 38°01' E 023°33'2 0.7
2014-Sep-14 08:31N 38°02' E 023°36'4 0.2
2014-Sep-13 11:09N 37°58' E 023°33'5 8.0
2014-Sep-13 10:33N 37°55' E 023°37'9 9.4
2014-Sep-13 09:33N 37°46' E 023°43'39 9.4
2014-Sep-13 05:26N 37°10' E 024°01'8 9.3
2014-Sep-13 04:33N 37°03' E 024°05'9 9.5
2014-Sep-13 03:33N 36°54' E 024°09'10 9.6
2014-Sep-13 02:33N 36°45' E 024°13'10 9.7
2014-Sep-13 01:33N 36°36' E 024°18'1010.0
2014-Sep-13 00:33N 36°28' E 024°25'10 9.4
2014-Sep-12 23:33N 36°19' E 024°31'11 9.2
2014-Sep-12 22:18N 36°09' E 024°37'7 9.0
2014-Sep-12 21:33N 36°03' E 024°41'26 8.7
2014-Sep-12 18:33N 35°40' E 024°56'20 3.3
2014-Sep-12 12:28N 35°21' E 025°03'0 0.0
2014-Sep-12 10:22N 35°21' E 025°03'20 2.2
2014-Sep-12 01:17N 35°39' E 024°54'16 5.5
2014-Sep-11 22:27N 35°53' E 024°43'9 9.8
2014-Sep-11 21:33N 36°01' E 024°39'10 9.7
2014-Sep-11 20:33N 36°09' E 024°33'10 9.6
2014-Sep-11 19:34N 36°17' E 024°27'9 9.3
2014-Sep-11 18:33N 36°25' E 024°21'9 9.1
2014-Sep-11 17:33N 36°33' E 024°15'10 9.3
2014-Sep-11 16:31N 36°42' E 024°10'9 9.5
2014-Sep-11 15:33N 36°49' E 024°04'40 9.3
2014-Sep-11 11:17N 37°24' E 023°39'7 9.5
2014-Sep-11 10:33N 37°30' E 023°35'9 9.2
2014-Sep-11 09:32N 37°38' E 023°29'9 9.1
2014-Sep-11 08:33N 37°40' E 023°18'9 9.2
2014-Sep-11 07:33N 37°49' E 023°12'  
Track history (hours):
 
Tides and Currents Weather Stations Pressure Air Temp Water Temp Dewpoint Dewpoint Depression Visibility Wind Speed Wind Dir Waves Ship Positions

Eviapetrol I

Last reported at 2014-Sep-20 11:33 UTC. Time now 2014-Sep-20 12:05 UTC.
Position N 38°02' E 023°36'.

Length 75 m; draft 4.5 m.

Type: Tanker. MMSI: 240285000.

Date/timePositionNaut miles runAvg speedWind from/ knotsBaromVisibWave heightAir tempDewpointWater temp
2014-Sep-20 11:33N 38°02' E 023°36'0 0.0
2014-Sep-20 10:33N 38°02' E 023°36'0 0.0
2014-Sep-20 09:33N 38°02' E 023°36'3 3.0
2014-Sep-20 08:33N 37°60' E 023°33'9 8.6
2014-Sep-20 07:33N 37°52' E 023°38'10 9.9
2014-Sep-20 06:33N 37°43' E 023°44'65 1.7
2014-Sep-18 17:16N 36°40' E 023°60'8 9.4
2014-Sep-18 16:23N 36°48' E 023°57'50 9.5
2014-Sep-18 11:05N 37°37' E 023°43'5 9.6
2014-Sep-18 10:33N 37°41' E 023°41'9 9.4
2014-Sep-18 09:33N 37°50' E 023°37'8 8.1
2014-Sep-18 08:33N 37°58' E 023°33'4 4.0
2014-Sep-18 07:33N 38°02' E 023°32'0 0.0
2014-Sep-18 06:30N 38°02' E 023°32'0 0.0
2014-Sep-18 05:33N 38°02' E 023°32'0 0.0
2014-Sep-18 04:33N 38°02' E 023°32'0 0.0
2014-Sep-18 03:33N 38°02' E 023°32'0 0.0
2014-Sep-18 02:18N 38°02' E 023°32'0 0.0
2014-Sep-18 01:33N 38°02' E 023°32'0 0.0
2014-Sep-18 00:33N 38°02' E 023°32'0 0.0
2014-Sep-17 23:33N 38°02' E 023°32'0 0.0
2014-Sep-17 22:33N 38°02' E 023°32'0 0.0
2014-Sep-17 21:30N 38°02' E 023°32'0 0.0
2014-Sep-17 20:33N 38°02' E 023°32'1 0.8
2014-Sep-17 19:33N 38°01' E 023°32'3 0.5
2014-Sep-17 14:24N 38°02' E 023°36'0 0.0
2014-Sep-17 12:32N 38°02' E 023°36'3 1.7
2014-Sep-17 10:33N 38°02' E 023°31'0 0.1
2014-Sep-17 09:33N 38°02' E 023°31'  
2014-Sep-14 14:06N 37°56' E 023°16'5 9.2
2014-Sep-14 13:33N 37°57' E 023°22'9 7.4
2014-Sep-14 12:18N 38°01' E 023°33'2 0.7
2014-Sep-14 08:31N 38°02' E 023°36'4 0.2
2014-Sep-13 11:09N 37°58' E 023°33'5 8.0
2014-Sep-13 10:33N 37°55' E 023°37'9 9.4
2014-Sep-13 09:33N 37°46' E 023°43'39 9.4
2014-Sep-13 05:26N 37°10' E 024°01'8 9.3
2014-Sep-13 04:33N 37°03' E 024°05'9 9.5
2014-Sep-13 03:33N 36°54' E 024°09'10 9.6
2014-Sep-13 02:33N 36°45' E 024°13'10 9.7
2014-Sep-13 01:33N 36°36' E 024°18'1010.0
2014-Sep-13 00:33N 36°28' E 024°25'10 9.4
2014-Sep-12 23:33N 36°19' E 024°31'11 9.2
2014-Sep-12 22:18N 36°09' E 024°37'7 9.0
2014-Sep-12 21:33N 36°03' E 024°41'26 8.7
2014-Sep-12 18:33N 35°40' E 024°56'20 3.3
2014-Sep-12 12:28N 35°21' E 025°03'0 0.0
2014-Sep-12 10:22N 35°21' E 025°03'20 2.2
2014-Sep-12 01:17N 35°39' E 024°54'16 5.5
2014-Sep-11 22:27N 35°53' E 024°43'9 9.8
2014-Sep-11 21:33N 36°01' E 024°39'10 9.7
2014-Sep-11 20:33N 36°09' E 024°33'10 9.6
2014-Sep-11 19:34N 36°17' E 024°27'9 9.3
2014-Sep-11 18:33N 36°25' E 024°21'9 9.1
2014-Sep-11 17:33N 36°33' E 024°15'10 9.3
2014-Sep-11 16:31N 36°42' E 024°10'9 9.5
2014-Sep-11 15:33N 36°49' E 024°04'40 9.3
2014-Sep-11 11:17N 37°24' E 023°39'7 9.5
2014-Sep-11 10:33N 37°30' E 023°35'9 9.2
2014-Sep-11 09:32N 37°38' E 023°29'9 9.1
2014-Sep-11 08:33N 37°40' E 023°18'9 9.2
2014-Sep-11 07:33N 37°49' E 023°12'  

Dump ship's entire track history